Time;durP1;ratioP1;P1;durP2;ratioP2;P2;SDS_P1;SDS_P2;PMS_P1;PMS_P2;Temp;Humidity;BMP_temperature;BMP_pressure;BME280_temperature;BME280_humidity;BME280_pressure;Samples;Min_cycle;Max_cycle;Signal;HPM_P1;HPM_P2
2023/07/28 00:00:05;;;;;;;4.53;2.88;;;;;;;;;;4987445;28;20054;-76
2023/07/28 00:02:31;;;;;;;4.15;2.45;;;;;;;;;;4998569;28;20113;-76
2023/07/28 00:04:56;;;;;;;3.83;2.20;;;;;;;;;;4990268;28;20112;-75
2023/07/28 00:07:21;;;;;;;4.90;2.38;;;;;;;;;;4978224;28;20401;-76
2023/07/28 00:09:47;;;;;;;2.47;2.25;;;;;;;;;;4999185;28;20034;-76
2023/07/28 00:12:12;;;;;;;2.30;2.10;;;;;;;;;;4986477;28;20026;-76
2023/07/28 00:14:37;;;;;;;2.47;2.13;;;;;;;;;;4986985;28;20377;-75
2023/07/28 00:17:03;;;;;;;2.35;2.10;;;;;;;;;;4962999;28;20668;-75
2023/07/28 00:19:28;;;;;;;2.63;1.88;;;;;;;;;;5001684;28;20567;-76
2023/07/28 00:21:55;;;;;;;3.58;2.00;;;;;;;;;;4991054;28;20029;-76
2023/07/28 00:24:21;;;;;;;2.60;2.40;;;;;;;;;;4994494;28;20474;-76
2023/07/28 00:26:46;;;;;;;2.88;2.25;;;;;;;;;;4931824;28;20081;-76
2023/07/28 00:29:11;;;;;;;2.08;1.88;;;;;;;;;;4925144;28;20040;-76
2023/07/28 00:31:37;;;;;;;4.45;2.10;;;;;;;;;;4911061;28;20036;-76
2023/07/28 00:34:02;;;;;;;2.55;1.85;;;;;;;;;;4924105;28;20070;-75
2023/07/28 00:36:28;;;;;;;2.80;2.20;;;;;;;;;;4993065;28;20045;-75
2023/07/28 00:38:53;;;;;;;2.30;2.10;;;;;;;;;;4993853;28;20037;-75
2023/07/28 00:41:18;;;;;;;1.88;1.67;;;;;;;;;;4982977;28;20029;-77
2023/07/28 00:43:44;;;;;;;2.50;2.08;;;;;;;;;;5008780;28;20032;-75
2023/07/28 00:46:10;;;;;;;2.22;2.03;;;;;;;;;;4980757;28;20307;-74
2023/07/28 00:48:36;;;;;;;4.75;1.90;;;;;;;;;;4984117;28;20177;-77
2023/07/28 00:51:01;;;;;;;3.33;1.98;;;;;;;;;;4990097;28;20768;-77
2023/07/28 00:53:28;;;;;;;5.63;2.20;;;;;;;;;;4980203;28;20025;-77
2023/07/28 00:55:54;;;;;;;2.97;2.33;;;;;;;;;;4980967;28;20044;-75
2023/07/28 00:58:19;;;;;;;3.65;2.30;;;;;;;;;;5001760;28;20124;-75
2023/07/28 01:00:45;;;;;;;2.22;1.98;;;;;;;;;;4986898;28;20033;-75
2023/07/28 01:03:10;;;;;;;2.10;1.90;;;;;;;;;;4986240;28;20222;-75
2023/07/28 01:05:48;;;;;;;3.22;2.30;;;;;;;;;;4994426;28;20048;-75
2023/07/28 01:08:36;;;;;;;2.17;1.98;;;;;;;;;;4980864;28;20549;-77
2023/07/28 01:11:02;;;;;;;2.40;2.20;;;;;;;;;;4953041;28;20412;-75
2023/07/28 01:13:28;;;;;;;2.10;1.90;;;;;;;;;;4997642;28;20617;-77
2023/07/28 01:15:54;;;;;;;1.92;1.67;;;;;;;;;;4992275;28;20166;-75
2023/07/28 01:18:19;;;;;;;3.58;1.77;;;;;;;;;;4992760;28;20032;-76
2023/07/28 01:20:47;;;;;;;2.45;2.10;;;;;;;;;;4984920;28;20119;-75
2023/07/28 01:23:20;;;;;;;2.33;2.13;;;;;;;;;;4994476;28;20179;-75
2023/07/28 01:26:07;;;;;;;2.60;2.05;;;;;;;;;;4982799;28;20040;-75
2023/07/28 01:28:34;;;;;;;2.20;2.00;;;;;;;;;;4977539;28;20029;-75
2023/07/28 01:31:02;;;;;;;3.10;2.33;;;;;;;;;;4967414;28;20049;-75
2023/07/28 01:33:27;;;;;;;4.70;2.20;;;;;;;;;;4990634;28;20393;-75
2023/07/28 01:35:52;;;;;;;2.08;1.88;;;;;;;;;;4987379;28;20022;-75
2023/07/28 01:38:18;;;;;;;2.83;2.22;;;;;;;;;;4981998;28;20121;-75
2023/07/28 01:40:43;;;;;;;4.05;2.25;;;;;;;;;;4985141;28;20044;-75
2023/07/28 01:43:08;;;;;;;3.33;1.90;;;;;;;;;;4980719;28;20029;-75
2023/07/28 01:45:34;;;;;;;2.67;2.10;;;;;;;;;;4989615;28;20030;-75
2023/07/28 01:47:59;;;;;;;2.28;1.92;;;;;;;;;;4971226;28;20028;-75
2023/07/28 01:50:24;;;;;;;2.55;1.98;;;;;;;;;;4973109;28;20079;-75
2023/07/28 01:52:50;;;;;;;5.22;2.20;;;;;;;;;;4955747;28;20042;-74
2023/07/28 01:55:15;;;;;;;3.83;2.20;;;;;;;;;;4966978;28;20460;-75
2023/07/28 01:57:51;;;;;;;2.28;2.08;;;;;;;;;;4952759;28;20047;-75
2023/07/28 02:00:16;;;;;;;2.33;1.77;;;;;;;;;;4966309;28;20040;-74
2023/07/28 02:02:42;;;;;;;3.38;2.15;;;;;;;;;;4957333;28;20586;-75
2023/07/28 02:05:07;;;;;;;2.90;1.90;;;;;;;;;;4942991;28;20042;-75
2023/07/28 02:07:32;;;;;;;2.40;2.10;;;;;;;;;;4958265;28;20038;-76
2023/07/28 02:09:58;;;;;;;2.60;2.08;;;;;;;;;;4949669;28;20112;-75
2023/07/28 02:12:23;;;;;;;5.95;1.73;;;;;;;;;;4940621;28;20048;-76
2023/07/28 02:14:48;;;;;;;1.77;1.67;;;;;;;;;;4952642;28;20044;-75
2023/07/28 02:17:14;;;;;;;2.30;2.10;;;;;;;;;;4952170;28;20508;-75
2023/07/28 02:19:39;;;;;;;6.50;2.03;;;;;;;;;;4961412;28;20039;-75
2023/07/28 02:22:05;;;;;;;5.15;2.45;;;;;;;;;;4976691;28;20113;-75
2023/07/28 02:24:30;;;;;;;3.85;1.92;;;;;;;;;;4954444;28;20044;-76
2023/07/28 02:26:55;;;;;;;3.72;2.15;;;;;;;;;;4957993;28;20289;-75
2023/07/28 02:29:21;;;;;;;3.25;1.90;;;;;;;;;;4950562;28;20033;-75
2023/07/28 02:31:46;;;;;;;2.15;2.00;;;;;;;;;;4960106;28;20059;-75
2023/07/28 02:34:11;;;;;;;3.67;2.22;;;;;;;;;;4965283;28;20032;-75
2023/07/28 02:36:36;;;;;;;2.20;2.00;;;;;;;;;;4981845;28;20042;-77
2023/07/28 02:39:02;;;;;;;2.80;1.98;;;;;;;;;;4963876;28;20040;-76
2023/07/28 02:41:27;;;;;;;3.35;2.15;;;;;;;;;;4952134;28;20044;-76
2023/07/28 02:43:53;;;;;;;5.05;2.00;;;;;;;;;;4924646;28;20039;-77
2023/07/28 02:46:18;;;;;;;2.10;1.90;;;;;;;;;;4971711;28;20108;-76
2023/07/28 02:48:43;;;;;;;2.22;1.83;;;;;;;;;;4952723;28;20036;-76
2023/07/28 02:51:08;;;;;;;2.10;2.00;;;;;;;;;;4966208;28;20075;-77
2023/07/28 02:53:34;;;;;;;2.17;1.70;;;;;;;;;;4954029;28;20046;-77
2023/07/28 02:55:59;;;;;;;2.35;2.05;;;;;;;;;;4935791;28;20028;-76
2023/07/28 02:58:24;;;;;;;3.28;2.17;;;;;;;;;;4933777;28;20035;-77
2023/07/28 03:00:51;;;;;;;2.58;1.73;;;;;;;;;;4968202;28;20055;-77
2023/07/28 03:03:16;;;;;;;2.65;2.03;;;;;;;;;;4952461;28;20059;-77
2023/07/28 03:05:42;;;;;;;2.33;1.88;;;;;;;;;;4981823;28;20039;-77
2023/07/28 03:08:07;;;;;;;2.00;1.80;;;;;;;;;;4985102;28;20037;-77
2023/07/28 03:10:33;;;;;;;8.05;1.98;;;;;;;;;;4967600;28;20506;-77
2023/07/28 03:12:58;;;;;;;6.43;2.35;;;;;;;;;;4950067;28;20259;-77
2023/07/28 03:15:23;;;;;;;2.20;2.00;;;;;;;;;;4934594;28;20043;-77
2023/07/28 03:17:50;;;;;;;1.67;1.58;;;;;;;;;;4982689;28;20481;-77
2023/07/28 03:20:15;;;;;;;8.00;2.08;;;;;;;;;;4981969;28;20057;-77
2023/07/28 03:22:41;;;;;;;2.38;1.75;;;;;;;;;;4960149;28;20044;-77
2023/07/28 03:25:06;;;;;;;3.42;2.05;;;;;;;;;;4972839;28;20038;-77
2023/07/28 03:27:32;;;;;;;1.77;1.67;;;;;;;;;;4949146;28;20056;-76
2023/07/28 03:29:57;;;;;;;2.70;1.90;;;;;;;;;;4984367;28;20140;-77
2023/07/28 03:32:22;;;;;;;2.00;1.90;;;;;;;;;;4975232;28;20525;-77
2023/07/28 03:34:48;;;;;;;2.63;2.08;;;;;;;;;;4965540;28;20029;-77
2023/07/28 03:37:13;;;;;;;3.40;1.88;;;;;;;;;;4977204;28;20173;-77
2023/07/28 03:39:39;;;;;;;2.05;1.80;;;;;;;;;;4935627;28;20044;-77
2023/07/28 03:42:04;;;;;;;2.25;1.90;;;;;;;;;;4968068;28;20326;-76
2023/07/28 03:44:30;;;;;;;4.35;1.95;;;;;;;;;;4964434;28;20077;-77
2023/07/28 03:46:55;;;;;;;2.38;1.73;;;;;;;;;;4972960;28;20402;-77
2023/07/28 03:49:20;;;;;;;2.25;1.90;;;;;;;;;;4952090;28;20393;-77
2023/07/28 03:51:46;;;;;;;1.85;1.75;;;;;;;;;;4982262;28;20062;-77
2023/07/28 03:54:11;;;;;;;3.42;2.30;;;;;;;;;;4957521;28;20026;-77
2023/07/28 03:56:36;;;;;;;9.27;2.10;;;;;;;;;;4941117;28;20029;-77
2023/07/28 03:59:02;;;;;;;1.98;1.88;;;;;;;;;;4926581;28;20369;-77
2023/07/28 04:01:27;;;;;;;4.63;1.90;;;;;;;;;;4962347;28;20460;-77
2023/07/28 04:03:52;;;;;;;2.83;2.25;;;;;;;;;;4958048;28;20116;-77
2023/07/28 04:06:17;;;;;;;3.17;2.00;;;;;;;;;;4951670;28;20052;-77
2023/07/28 04:08:43;;;;;;;3.20;1.90;;;;;;;;;;4947675;28;20026;-77
2023/07/28 04:11:09;;;;;;;1.63;1.52;;;;;;;;;;4946079;28;20086;-77
2023/07/28 04:13:34;;;;;;;1.80;1.70;;;;;;;;;;4957564;28;20105;-77
2023/07/28 04:16:00;;;;;;;3.40;2.25;;;;;;;;;;4968929;28;20164;-77
2023/07/28 04:18:25;;;;;;;3.10;2.10;;;;;;;;;;4968285;28;20037;-77
2023/07/28 04:20:51;;;;;;;3.28;2.80;;;;;;;;;;4945382;28;20050;-77
2023/07/28 04:23:16;;;;;;;4.30;2.13;;;;;;;;;;4976045;28;20042;-77
2023/07/28 04:25:41;;;;;;;3.05;2.38;;;;;;;;;;4938997;28;20478;-77
2023/07/28 04:28:06;;;;;;;2.30;2.10;;;;;;;;;;4984863;28;20047;-77
2023/07/28 04:30:32;;;;;;;2.60;2.28;;;;;;;;;;4972744;28;20496;-76
2023/07/28 04:32:57;;;;;;;2.40;2.20;;;;;;;;;;4987539;28;20117;-77
2023/07/28 04:35:22;;;;;;;2.50;2.20;;;;;;;;;;4987743;28;20459;-77
2023/07/28 04:37:48;;;;;;;7.10;2.90;;;;;;;;;;4985416;28;20041;-77
2023/07/28 04:40:13;;;;;;;3.47;2.58;;;;;;;;;;4980485;28;20049;-77
2023/07/28 04:42:39;;;;;;;2.95;2.30;;;;;;;;;;4959430;28;20039;-77
2023/07/28 04:45:04;;;;;;;2.22;2.03;;;;;;;;;;4982198;28;20440;-77
2023/07/28 04:47:30;;;;;;;4.72;2.28;;;;;;;;;;4964969;28;20511;-77
2023/07/28 04:49:55;;;;;;;2.20;1.90;;;;;;;;;;4961030;28;20066;-77
2023/07/28 04:52:20;;;;;;;2.25;2.05;;;;;;;;;;4973557;28;20026;-77
2023/07/28 04:54:46;;;;;;;2.10;1.90;;;;;;;;;;4966324;28;20036;-78
2023/07/28 04:57:11;;;;;;;2.00;1.80;;;;;;;;;;4977810;28;20406;-78
2023/07/28 04:59:37;;;;;;;1.90;1.80;;;;;;;;;;4989837;28;20108;-77
2023/07/28 05:02:02;;;;;;;2.10;1.90;;;;;;;;;;5001349;28;20037;-78
2023/07/28 05:04:27;;;;;;;3.17;2.00;;;;;;;;;;4955345;28;20028;-78
2023/07/28 05:06:53;;;;;;;3.55;1.90;;;;;;;;;;4982420;28;20154;-77
2023/07/28 05:09:18;;;;;;;2.63;1.85;;;;;;;;;;4993623;28;20041;-77
2023/07/28 05:11:44;;;;;;;2.83;1.90;;;;;;;;;;4979819;28;20517;-77
2023/07/28 05:14:09;;;;;;;2.22;1.80;;;;;;;;;;4973793;28;20065;-78
2023/07/28 05:16:34;;;;;;;2.90;1.85;;;;;;;;;;4977123;28;20043;-77
2023/07/28 05:19:00;;;;;;;2.20;1.90;;;;;;;;;;4976474;28;20044;-77
2023/07/28 05:21:25;;;;;;;1.77;1.67;;;;;;;;;;4986294;28;20065;-77
2023/07/28 05:23:51;;;;;;;5.22;1.90;;;;;;;;;;5011273;28;20034;-77
2023/07/28 05:26:16;;;;;;;3.42;2.20;;;;;;;;;;4971481;28;20048;-78
2023/07/28 05:28:42;;;;;;;4.50;2.20;;;;;;;;;;4974662;28;20037;-78
2023/07/28 05:31:07;;;;;;;1.95;1.83;;;;;;;;;;4986448;28;20046;-78
2023/07/28 05:33:33;;;;;;;2.45;1.70;;;;;;;;;;4976271;28;20036;-78
2023/07/28 05:36:00;;;;;;;2.30;1.88;;;;;;;;;;4976026;28;20022;-78
2023/07/28 05:38:26;;;;;;;4.97;2.35;;;;;;;;;;4969337;28;20108;-77
2023/07/28 05:41:00;;;;;;;2.72;2.35;;;;;;;;;;4982360;28;20129;-77
2023/07/28 05:43:25;;;;;;;;;;;;;;;;;;4979454;28;20059;-78
2023/07/28 05:45:51;;;;;;;2.42;1.70;;;;;;;;;;4997575;28;20402;-78
2023/07/28 05:48:16;;;;;;;2.58;2.03;;;;;;;;;;5001610;28;20029;-78
2023/07/28 05:50:41;;;;;;;2.13;1.70;;;;;;;;;;4984164;28;20505;-78
2023/07/28 05:53:07;;;;;;;3.60;2.00;;;;;;;;;;4990877;28;20117;-78
2023/07/28 05:55:32;;;;;;;4.03;2.10;;;;;;;;;;4954178;28;20163;-78
2023/07/28 05:57:58;;;;;;;5.50;2.20;;;;;;;;;;4982941;28;20042;-78
2023/07/28 06:00:23;;;;;;;2.25;1.80;;;;;;;;;;4981753;28;20117;-78
2023/07/28 06:02:48;;;;;;;1.88;1.77;;;;;;;;;;5001580;28;20124;-77
2023/07/28 06:05:14;;;;;;;2.90;1.98;;;;;;;;;;4973636;28;20036;-78
2023/07/28 06:07:39;;;;;;;3.28;2.15;;;;;;;;;;4982406;28;20494;-78
2023/07/28 06:10:05;;;;;;;5.07;2.03;;;;;;;;;;5004251;28;20033;-78
2023/07/28 06:12:30;;;;;;;2.40;1.75;;;;;;;;;;4960220;28;20041;-78
2023/07/28 06:14:55;;;;;;;3.30;1.65;;;;;;;;;;4989694;28;20034;-78
2023/07/28 06:17:21;;;;;;;2.78;1.77;;;;;;;;;;4981966;28;20096;-78
2023/07/28 06:19:46;;;;;;;2.67;1.65;;;;;;;;;;4982460;28;20506;-78
2023/07/28 06:22:11;;;;;;;2.53;1.98;;;;;;;;;;4983504;28;20037;-78
2023/07/28 06:24:37;;;;;;;2.28;1.90;;;;;;;;;;4976935;28;20041;-78
2023/07/28 06:27:07;;;;;;;1.77;1.67;;;;;;;;;;4913888;28;20051;-78
2023/07/28 06:29:33;;;;;;;2.47;1.80;;;;;;;;;;4927946;28;20048;-78
2023/07/28 06:31:58;;;;;;;2.63;1.90;;;;;;;;;;4916929;28;20035;-78
2023/07/28 06:34:23;;;;;;;1.80;1.65;;;;;;;;;;4913294;28;20444;-78
2023/07/28 06:36:49;;;;;;;2.28;1.70;;;;;;;;;;4949537;28;20067;-77
2023/07/28 06:39:14;;;;;;;4.05;1.70;;;;;;;;;;4966223;28;20522;-77
2023/07/28 06:41:39;;;;;;;5.32;1.90;;;;;;;;;;4968875;28;20030;-77
2023/07/28 06:44:05;;;;;;;4.85;1.80;;;;;;;;;;4969498;28;20049;-77
2023/07/28 06:46:30;;;;;;;3.08;1.88;;;;;;;;;;4960392;28;20046;-77
2023/07/28 06:48:56;;;;;;;1.67;1.50;;;;;;;;;;4950801;28;20126;-77
2023/07/28 06:51:21;;;;;;;5.63;2.30;;;;;;;;;;4947372;28;20647;-78
2023/07/28 06:53:47;;;;;;;3.58;1.50;;;;;;;;;;4959206;28;20026;-78
2023/07/28 06:56:12;;;;;;;2.10;1.70;;;;;;;;;;4924470;28;20147;-77
2023/07/28 06:58:37;;;;;;;2.95;1.70;;;;;;;;;;4966319;28;20042;-77
2023/07/28 07:01:03;;;;;;;6.93;1.85;;;;;;;;;;4984829;28;20712;-77
2023/07/28 07:03:28;;;;;;;3.05;1.80;;;;;;;;;;4984872;28;20043;-78
2023/07/28 07:05:53;;;;;;;6.25;2.13;;;;;;;;;;4988918;28;20165;-78
2023/07/28 07:08:19;;;;;;;2.80;1.70;;;;;;;;;;4980515;28;20406;-78
2023/07/28 07:10:50;;;;;;;2.25;1.50;;;;;;;;;;4986123;28;20051;-78
2023/07/28 07:13:16;;;;;;;13.13;2.53;;;;;;;;;;4986024;28;20572;-77
2023/07/28 07:15:42;;;;;;;36.65;4.13;;;;;;;;;;4973343;28;20038;-77
2023/07/28 07:18:07;;;;;;;32.50;5.03;;;;;;;;;;4935757;28;20032;-78
2023/07/28 07:20:39;;;;;;;7.47;2.20;;;;;;;;;;4952347;28;20032;-78
2023/07/28 07:23:05;;;;;;;12.85;2.50;;;;;;;;;;4962184;28;20045;-78
2023/07/28 07:25:30;;;;;;;1.85;1.45;;;;;;;;;;4951747;28;20052;-78
2023/07/28 07:27:56;;;;;;;3.63;1.73;;;;;;;;;;4945635;28;20036;-78
2023/07/28 07:30:22;;;;;;;5.38;2.00;;;;;;;;;;4928364;28;20644;-78
2023/07/28 07:32:47;;;;;;;9.82;1.83;;;;;;;;;;4935028;28;20033;-77
2023/07/28 07:35:12;;;;;;;2.03;1.85;;;;;;;;;;4931121;28;20037;-77
2023/07/28 07:37:38;;;;;;;3.90;1.83;;;;;;;;;;4950306;28;20074;-78
2023/07/28 07:40:07;;;;;;;11.20;1.88;;;;;;;;;;4929757;28;20039;-78
2023/07/28 07:42:46;;;;;;;2.95;2.08;;;;;;;;;;4918484;28;20044;-78
2023/07/28 07:45:13;;;;;;;1.80;1.70;;;;;;;;;;4969131;28;20030;-78
2023/07/28 07:47:40;;;;;;;1.80;1.70;;;;;;;;;;4957266;28;20071;-79
2023/07/28 07:50:08;;;;;;;1.60;1.50;;;;;;;;;;4956557;28;20044;-78
2023/07/28 07:52:34;;;;;;;14.90;1.65;;;;;;;;;;4922741;28;20186;-78
2023/07/28 07:54:59;;;;;;;8.23;2.00;;;;;;;;;;4959070;28;20125;-78
2023/07/28 07:57:24;;;;;;;3.17;1.75;;;;;;;;;;4937511;28;20033;-78
2023/07/28 07:59:50;;;;;;;2.55;1.45;;;;;;;;;;4952302;28;20432;-78
2023/07/28 08:02:15;;;;;;;3.38;1.83;;;;;;;;;;4950298;28;20036;-78
2023/07/28 08:04:40;;;;;;;9.40;2.20;;;;;;;;;;4939464;28;20040;-78
2023/07/28 08:07:06;;;;;;;3.83;1.92;;;;;;;;;;4943406;28;20034;-78
2023/07/28 08:09:31;;;;;;;1.67;1.58;;;;;;;;;;4951008;28;20044;-78
2023/07/28 08:11:56;;;;;;;1.92;1.83;;;;;;;;;;4948176;28;20025;-78
2023/07/28 08:14:22;;;;;;;2.78;1.70;;;;;;;;;;4939969;28;20036;-78
2023/07/28 08:16:47;;;;;;;1.98;1.75;;;;;;;;;;4941281;28;20056;-78
2023/07/28 08:19:12;;;;;;;2.92;1.70;;;;;;;;;;4928203;28;20036;-78
2023/07/28 08:21:38;;;;;;;6.45;1.75;;;;;;;;;;4929871;28;20044;-77
2023/07/28 08:24:04;;;;;;;4.88;2.10;;;;;;;;;;4939040;28;20086;-78
2023/07/28 08:26:30;;;;;;;4.18;1.75;;;;;;;;;;4941754;28;20111;-78
2023/07/28 08:28:55;;;;;;;2.17;1.80;;;;;;;;;;4937192;28;20047;-78
2023/07/28 08:31:21;;;;;;;2.13;1.90;;;;;;;;;;4936962;28;20417;-78
2023/07/28 08:33:46;;;;;;;12.93;1.95;;;;;;;;;;4921279;28;20040;-78
2023/07/28 08:36:12;;;;;;;8.27;2.13;;;;;;;;;;4954275;23;20041;-74
2023/07/28 08:38:38;;;;;;;1.58;1.48;;;;;;;;;;4984585;28;20045;-76
2023/07/28 08:41:05;;;;;;;2.40;1.98;;;;;;;;;;4988935;28;20038;-76
2023/07/28 08:43:31;;;;;;;1.88;1.77;;;;;;;;;;4988028;28;20494;-76
2023/07/28 08:45:57;;;;;;;4.72;1.50;;;;;;;;;;4986455;28;20033;-77
2023/07/28 08:48:23;;;;;;;2.10;1.90;;;;;;;;;;4988273;28;20453;-76
2023/07/28 08:50:48;;;;;;;2.45;1.75;;;;;;;;;;4985891;28;20101;-76
2023/07/28 08:53:14;;;;;;;4.47;1.90;;;;;;;;;;4989946;28;20034;-75
2023/07/28 08:55:39;;;;;;;1.95;1.80;;;;;;;;;;4986344;28;20100;-74
2023/07/28 08:58:21;;;;;;;2.17;1.80;;;;;;;;;;4989821;28;20049;-75
2023/07/28 09:00:50;;;;;;;2.05;1.85;;;;;;;;;;4987615;28;20221;-75
2023/07/28 09:03:17;;;;;;;8.93;1.80;;;;;;;;;;4983508;28;20626;-75
2023/07/28 09:05:44;;;;;;;2.05;1.88;;;;;;;;;;4986247;28;20058;-75
2023/07/28 09:08:09;;;;;;;6.22;2.53;;;;;;;;;;5000766;28;20217;-75
2023/07/28 09:10:48;;;;;;;8.48;1.73;;;;;;;;;;4987885;28;20436;-77
2023/07/28 09:13:15;;;;;;;2.10;1.90;;;;;;;;;;4985836;28;20506;-75
2023/07/28 09:15:41;;;;;;;5.93;1.80;;;;;;;;;;4987396;28;20097;-76
2023/07/28 09:18:16;;;;;;;2.42;1.73;;;;;;;;;;4986506;28;20030;-75
2023/07/28 09:20:42;;;;;;;3.40;1.88;;;;;;;;;;4986735;28;20030;-75
2023/07/28 09:23:10;;;;;;;2.70;1.60;;;;;;;;;;4986892;28;20532;-75
2023/07/28 09:25:37;;;;;;;2.08;1.70;;;;;;;;;;4990809;28;20048;-75
2023/07/28 09:28:03;;;;;;;2.47;2.15;;;;;;;;;;4993876;28;20045;-75
2023/07/28 09:30:45;;;;;;;3.03;1.98;;;;;;;;;;4993101;28;20046;-75
2023/07/28 09:33:10;;;;;;;2.10;1.92;;;;;;;;;;4991221;28;20034;-75
2023/07/28 09:35:47;;;;;;;2.00;1.83;;;;;;;;;;4991572;28;20029;-75
2023/07/28 09:38:14;;;;;;;2.22;1.80;;;;;;;;;;4992248;28;20034;-75
2023/07/28 09:40:40;;;;;;;3.40;2.30;;;;;;;;;;4988642;28;20346;-75
2023/07/28 09:43:06;;;;;;;3.22;1.92;;;;;;;;;;4989607;28;20114;-75
2023/07/28 09:45:31;;;;;;;2.72;1.85;;;;;;;;;;5008819;28;20081;-75
2023/07/28 09:47:59;;;;;;;2.63;1.85;;;;;;;;;;4992995;28;20042;-75
2023/07/28 09:50:27;;;;;;;4.65;2.10;;;;;;;;;;4988334;28;20054;-75
2023/07/28 09:52:54;;;;;;;2.85;1.90;;;;;;;;;;4986426;28;20122;-75
2023/07/28 09:55:20;;;;;;;2.22;1.70;;;;;;;;;;4987209;28;20042;-75
2023/07/28 09:57:53;;;;;;;1.70;1.60;;;;;;;;;;4982615;28;20053;-75
2023/07/28 10:00:21;;;;;;;2.47;1.80;;;;;;;;;;4987817;28;20457;-75
2023/07/28 10:02:47;;;;;;;2.75;2.15;;;;;;;;;;4987875;28;20027;-76
2023/07/28 10:05:15;;;;;;;1.88;1.77;;;;;;;;;;4988709;28;20044;-76
2023/07/28 10:07:42;;;;;;;5.85;1.90;;;;;;;;;;4981458;28;20042;-76
2023/07/28 10:10:11;;;;;;;6.30;2.10;;;;;;;;;;4987406;28;20358;-75
2023/07/28 10:12:43;;;;;;;4.32;2.33;;;;;;;;;;4984326;28;20057;-76
2023/07/28 10:15:15;;;;;;;4.35;2.30;;;;;;;;;;4992055;28;20030;-76
2023/07/28 10:17:44;;;;;;;2.33;1.90;;;;;;;;;;4988099;28;20153;-75
2023/07/28 10:20:41;;;;;;;6.43;2.40;;;;;;;;;;4989056;28;20525;-75
2023/07/28 10:23:20;;;;;;;3.67;2.00;;;;;;;;;;4991470;28;20042;-74
2023/07/28 10:25:46;;;;;;;2.20;2.00;;;;;;;;;;4991291;28;20030;-74
2023/07/28 10:28:31;;;;;;;2.70;2.17;;;;;;;;;;4989776;28;20046;-75
2023/07/28 10:30:58;;;;;;;4.03;1.90;;;;;;;;;;4991021;28;20042;-75
2023/07/28 10:33:30;;;;;;;7.35;2.30;;;;;;;;;;4989755;28;20051;-74
2023/07/28 10:35:58;;;;;;;4.10;1.92;;;;;;;;;;4989132;28;20034;-75
2023/07/28 10:38:31;;;;;;;6.60;2.40;;;;;;;;;;4987294;28;20057;-75
2023/07/28 10:41:14;;;;;;;2.45;1.80;;;;;;;;;;4989176;28;20034;-75
2023/07/28 10:43:40;;;;;;;2.72;1.95;;;;;;;;;;4987632;28;20031;-75
2023/07/28 10:46:08;;;;;;;5.25;2.13;;;;;;;;;;4991297;28;20030;-75
2023/07/28 10:48:41;;;;;;;3.10;1.95;;;;;;;;;;4986118;28;20038;-75
2023/07/28 10:51:06;;;;;;;16.73;2.20;;;;;;;;;;4982492;28;20505;-77
2023/07/28 10:53:32;;;;;;;2.53;2.30;;;;;;;;;;4987267;28;20022;-76
2023/07/28 10:55:59;;;;;;;3.55;2.08;;;;;;;;;;4985722;28;20031;-75
2023/07/28 10:58:24;;;;;;;5.00;2.17;;;;;;;;;;4987119;28;20050;-75
2023/07/28 11:00:51;;;;;;;2.30;2.08;;;;;;;;;;4990146;28;20042;-75
2023/07/28 11:03:17;;;;;;;2.83;2.17;;;;;;;;;;4989304;28;20034;-75
2023/07/28 11:05:42;;;;;;;2.33;2.03;;;;;;;;;;4986860;28;20510;-75
2023/07/28 11:08:08;;;;;;;2.47;2.08;;;;;;;;;;4984416;28;20066;-75
2023/07/28 11:10:35;;;;;;;6.13;2.05;;;;;;;;;;4985137;28;20039;-76
2023/07/28 11:13:03;;;;;;;2.28;2.08;;;;;;;;;;4984062;28;20093;-76
2023/07/28 11:15:28;;;;;;;3.00;2.40;;;;;;;;;;4986359;28;20045;-75
2023/07/28 11:17:54;;;;;;;2.20;1.92;;;;;;;;;;4991765;28;20034;-76
2023/07/28 11:20:20;;;;;;;3.20;2.22;;;;;;;;;;5002050;28;20567;-76
2023/07/28 11:22:52;;;;;;;5.30;2.20;;;;;;;;;;4990486;28;20042;-75
2023/07/28 11:25:17;;;;;;;3.15;2.30;;;;;;;;;;4988001;28;20172;-75
2023/07/28 11:27:46;;;;;;;3.97;2.10;;;;;;;;;;4988024;28;20124;-75
2023/07/28 11:30:12;;;;;;;7.13;2.40;;;;;;;;;;4986773;28;20026;-77
2023/07/28 11:32:38;;;;;;;3.58;2.63;;;;;;;;;;4992235;28;20065;-75
2023/07/28 11:35:11;;;;;;;19.58;3.08;;;;;;;;;;4989054;28;20141;-75
2023/07/28 11:37:38;;;;;;;2.65;2.30;;;;;;;;;;4992552;28;20058;-76
2023/07/28 11:40:11;;;;;;;19.48;2.80;;;;;;;;;;4988732;28;20038;-76
2023/07/28 11:42:41;;;;;;;2.42;2.22;;;;;;;;;;4986912;28;20038;-77
2023/07/28 11:45:07;;;;;;;3.33;2.33;;;;;;;;;;5004549;28;20744;-76
2023/07/28 11:47:33;;;;;;;2.42;2.22;;;;;;;;;;4989687;28;20145;-76
2023/07/28 11:49:58;;;;;;;4.30;2.35;;;;;;;;;;4989026;28;20701;-76
2023/07/28 11:52:29;;;;;;;5.13;2.47;;;;;;;;;;4991706;28;20057;-76
2023/07/28 11:54:54;;;;;;;2.88;2.20;;;;;;;;;;4987114;28;20108;-76
2023/07/28 11:57:20;;;;;;;3.90;2.20;;;;;;;;;;4990090;28;20026;-76
2023/07/28 11:59:46;;;;;;;2.28;2.08;;;;;;;;;;4990909;28;20067;-77
2023/07/28 12:02:11;;;;;;;2.90;2.28;;;;;;;;;;4991953;28;20093;-76
2023/07/28 12:04:38;;;;;;;2.78;2.42;;;;;;;;;;4986987;28;20084;-77
2023/07/28 12:07:12;;;;;;;3.78;2.42;;;;;;;;;;4991493;28;20072;-77
2023/07/28 12:09:59;;;;;;;2.47;2.28;;;;;;;;;;4984599;28;20104;-77
2023/07/28 12:12:26;;;;;;;2.88;2.40;;;;;;;;;;4988368;28;20070;-77
2023/07/28 12:14:52;;;;;;;3.40;2.40;;;;;;;;;;4991088;28;20026;-77
2023/07/28 12:17:19;;;;;;;2.95;2.65;;;;;;;;;;4991525;28;20093;-77
2023/07/28 12:22:34;;;;;;;4.03;2.15;;;;;;;;;;4990451;28;20393;-77
2023/07/28 12:24:59;;;;;;;4.32;2.50;;;;;;;;;;4982493;28;20034;-74
2023/07/28 12:27:26;;;;;;;2.47;2.28;;;;;;;;;;4985925;28;20038;-77
2023/07/28 12:29:52;;;;;;;2.45;2.17;;;;;;;;;;4993766;28;20245;-77
2023/07/28 12:32:17;;;;;;;3.75;2.40;;;;;;;;;;4984859;28;20042;-77
2023/07/28 12:34:43;;;;;;;4.38;2.40;;;;;;;;;;4986972;28;20375;-77
2023/07/28 12:37:08;;;;;;;2.78;2.53;;;;;;;;;;4986261;28;20104;-76
2023/07/28 12:39:40;;;;;;;4.82;2.30;;;;;;;;;;4985362;28;20529;-77
2023/07/28 12:42:07;;;;;;;18.77;4.10;;;;;;;;;;4984946;28;20025;-77
2023/07/28 12:44:32;;;;;;;3.40;2.85;;;;;;;;;;4989024;28;20385;-77
2023/07/28 12:46:58;;;;;;;7.82;2.40;;;;;;;;;;4985683;28;20232;-77
2023/07/28 12:49:23;;;;;;;3.13;2.30;;;;;;;;;;5005804;28;20038;-77
2023/07/28 12:51:48;;;;;;;3.08;2.30;;;;;;;;;;4982833;28;20039;-77
2023/07/28 12:54:14;;;;;;;4.75;2.50;;;;;;;;;;4984325;28;20034;-77
2023/07/28 12:56:39;;;;;;;5.78;2.33;;;;;;;;;;4988086;28;20026;-77
2023/07/28 12:59:04;;;;;;;5.13;2.80;;;;;;;;;;4987881;28;20038;-77
2023/07/28 13:01:30;;;;;;;4.95;2.60;;;;;;;;;;4987626;28;20042;-77
2023/07/28 13:03:56;;;;;;;4.65;2.50;;;;;;;;;;4992121;28;20041;-77
2023/07/28 13:06:21;;;;;;;2.70;2.30;;;;;;;;;;4988296;28;20045;-76
2023/07/28 13:08:46;;;;;;;4.65;2.67;;;;;;;;;;4988696;28;20036;-76
2023/07/28 13:11:14;;;;;;;7.50;2.55;;;;;;;;;;4988274;28;20034;-76
2023/07/28 13:13:39;;;;;;;2.50;2.30;;;;;;;;;;4987855;28;20042;-74
2023/07/28 13:16:05;;;;;;;2.65;2.42;;;;;;;;;;4992046;28;20037;-77
2023/07/28 13:18:32;;;;;;;4.38;2.70;;;;;;;;;;4986981;28;20031;-74
2023/07/28 13:20:58;;;;;;;3.25;2.30;;;;;;;;;;4980443;28;20026;-76
2023/07/28 13:23:23;;;;;;;4.45;2.88;;;;;;;;;;4983630;28;20081;-75
2023/07/28 13:25:49;;;;;;;3.55;2.47;;;;;;;;;;4988199;28;20033;-77
2023/07/28 13:28:14;;;;;;;4.55;2.65;;;;;;;;;;4991354;28;20034;-75
2023/07/28 13:30:40;;;;;;;3.83;2.72;;;;;;;;;;4986507;28;20134;-75
2023/07/28 13:33:06;;;;;;;4.03;2.50;;;;;;;;;;4987979;28;20041;-77
2023/07/28 13:35:32;;;;;;;2.30;2.10;;;;;;;;;;4990630;28;20061;-75
2023/07/28 13:37:57;;;;;;;2.42;2.20;;;;;;;;;;4984393;28;20502;-75
2023/07/28 13:40:23;;;;;;;4.43;2.40;;;;;;;;;;4990586;28;20076;-75
2023/07/28 13:42:48;;;;;;;3.67;2.30;;;;;;;;;;4983250;28;20054;-75
2023/07/28 13:45:13;;;;;;;10.05;2.70;;;;;;;;;;4988903;28;20057;-75
2023/07/28 13:47:39;;;;;;;4.10;2.67;;;;;;;;;;4986185;28;20037;-75
2023/07/28 13:50:04;;;;;;;6.57;2.75;;;;;;;;;;4987283;28;20039;-75
2023/07/28 13:52:30;;;;;;;9.18;2.70;;;;;;;;;;4984331;28;20065;-75
2023/07/28 13:54:55;;;;;;;2.40;2.15;;;;;;;;;;5005718;28;20224;-76
2023/07/28 13:57:20;;;;;;;2.67;2.47;;;;;;;;;;4992257;28;20470;-75
2023/07/28 13:59:46;;;;;;;2.47;2.28;;;;;;;;;;4986851;28;20120;-75
2023/07/28 14:02:11;;;;;;;6.20;3.05;;;;;;;;;;4987620;28;20116;-75
2023/07/28 14:04:36;;;;;;;2.78;2.40;;;;;;;;;;4988122;28;20043;-74
2023/07/28 14:07:01;;;;;;;6.50;2.58;;;;;;;;;;4989311;28;20132;-76
2023/07/28 14:09:27;;;;;;;2.45;2.20;;;;;;;;;;4983730;28;20042;-76
2023/07/28 14:11:52;;;;;;;3.08;2.50;;;;;;;;;;4991823;28;20037;-75
2023/07/28 14:14:17;;;;;;;3.00;2.53;;;;;;;;;;4987349;28;20552;-73
2023/07/28 14:16:43;;;;;;;3.75;2.83;;;;;;;;;;4995321;28;20061;-74
2023/07/28 14:19:08;;;;;;;3.13;2.50;;;;;;;;;;4992570;28;20038;-73
2023/07/28 14:21:34;;;;;;;4.13;2.30;;;;;;;;;;4991397;28;20049;-73
2023/07/28 14:23:59;;;;;;;2.88;2.42;;;;;;;;;;4991014;28;20049;-73
2023/07/28 14:26:24;;;;;;;6.40;2.20;;;;;;;;;;4992796;28;20112;-74
2023/07/28 14:28:50;;;;;;;2.85;2.40;;;;;;;;;;4992290;28;20043;-74
2023/07/28 14:31:15;;;;;;;6.30;2.53;;;;;;;;;;4993340;28;20054;-74
2023/07/28 14:33:40;;;;;;;2.95;2.38;;;;;;;;;;4988478;28;20096;-74
2023/07/28 14:36:06;;;;;;;3.55;2.80;;;;;;;;;;4991016;28;20023;-74
2023/07/28 14:38:31;;;;;;;2.28;2.17;;;;;;;;;;4994076;28;20018;-74
2023/07/28 14:40:56;;;;;;;5.15;2.60;;;;;;;;;;4990414;28;20536;-74